Time;durP1;ratioP1;P1;durP2;ratioP2;P2;SDS_P1;SDS_P2;PMS_P1;PMS_P2;Temp;Humidity;BMP_temperature;BMP_pressure;BME280_temperature;BME280_humidity;BME280_pressure;Samples;Min_cycle;Max_cycle;Signal;HPM_P1;HPM_P2
2022/07/13 00:00:03;;;;;;;;;;;;;;;20.82;42.78;100326.28;4324326;33;21078;-82
2022/07/13 00:02:30;;;;;;;;;;;;;;;20.60;43.28;100329.28;4325701;33;19976;-79
2022/07/13 00:04:57;;;;;;;;;;;;;;;20.90;41.67;100322.63;4325911;33;19995;-80
2022/07/13 00:07:25;;;;;;;;;;;;;;;20.72;42.54;100322.97;4325791;33;19968;-81
2022/07/13 00:09:53;;;;;;;;;;;;;;;20.36;43.87;100324.44;4324307;33;20063;-79
2022/07/13 00:12:20;;;;;;;;;;;;;;;20.42;43.47;100325.19;4318824;32;19980;-80
2022/07/13 00:14:47;;;;;;;;;;;;;;;20.43;43.34;100320.81;4329436;32;19984;-79
2022/07/13 00:17:13;;;;;;;;;;;;;;;20.36;43.99;100330.56;4325738;33;20935;-79
2022/07/13 00:19:40;;;;;;;;;;;;;;;20.41;43.22;100322.56;4325580;33;20318;-79
2022/07/13 00:22:07;;;;;;;;;;;;;;;20.22;43.96;100332.50;4325205;33;20022;-81
2022/07/13 00:24:34;;;;;;;;;;;;;;;20.18;44.19;100336.97;4325747;33;20024;-79
2022/07/13 00:27:01;;;;;;;;;;;;;;;20.13;44.24;100327.41;4325783;33;20023;-83
2022/07/13 00:29:28;;;;;;;;;;;;;;;20.18;43.60;100315.06;4320709;32;20070;-79
2022/07/13 00:31:55;;;;;;;;;;;;;;;20.15;43.73;100325.63;4309648;33;20543;-79
2022/07/13 00:34:22;;;;;;;;;;;;;;;20.08;44.29;100324.00;4310543;33;19980;-79
2022/07/13 00:36:49;;;;;;;;;;;;;;;20.08;44.48;100324.00;4310970;33;20334;-79
2022/07/13 00:39:16;;;;;;;;;;;;;;;19.95;45.06;100313.66;4310810;33;20051;-80
2022/07/13 00:41:47;;;;;;;;;;;;;;;20.15;44.67;100315.13;4313033;33;20023;-79
2022/07/13 00:44:14;;;;;;;;;;;;;;;19.76;45.97;100309.56;4310849;33;19996;-79
2022/07/13 00:46:44;;;;;;;;;;;;;;;19.70;45.45;100304.38;4310994;33;20011;-79
2022/07/13 00:49:11;;;;;;;;;;;;;;;19.78;45.39;100310.38;4323092;32;20047;-79
2022/07/13 00:51:38;;;;;;;;;;;;;;;19.78;45.40;100309.53;4323831;33;20039;-85
2022/07/13 00:54:05;;;;;;;;;;;;;;;19.74;45.99;100298.19;4324114;33;20003;-79
2022/07/13 00:56:32;;;;;;;;;;;;;;;19.83;45.41;100308.56;4325371;33;20410;-78
2022/07/13 00:59:00;;;;;;;;;;;;;;;19.83;45.09;100300.69;4325417;32;20341;-82
2022/07/13 01:01:28;;;;;;;;;;;;;;;19.59;45.88;100298.37;4323861;33;19994;-80
2022/07/13 01:03:56;;;;;;;;;;;;;;;19.59;46.21;100299.25;4323469;33;20102;-79
2022/07/13 01:06:23;;;;;;;;;;;;;;;19.78;45.93;100299.88;4324404;32;20271;-80
2022/07/13 01:08:50;;;;;;;;;;;;;;;19.58;46.49;100301.91;4324783;33;20492;-80
2022/07/13 01:11:17;;;;;;;;;;;;;;;19.55;47.01;100301.94;4325586;33;19988;-82
2022/07/13 01:13:44;;;;;;;;;;;;;;;19.59;46.32;100294.00;4325006;33;19976;-80
2022/07/13 01:16:11;;;;;;;;;;;;;;;19.60;46.38;100301.00;4323765;33;20039;-80
2022/07/13 01:18:38;;;;;;;;;;;;;;;19.44;46.77;100300.31;4323768;33;20866;-87
2022/07/13 01:21:05;;;;;;;;;;;;;;;19.28;47.35;100304.03;4324909;33;20002;-79
2022/07/13 01:23:32;;;;;;;;;;;;;;;19.23;47.58;100295.34;4323524;33;20315;-80
2022/07/13 01:26:01;;;;;;;;;;;;;;;19.13;47.71;100289.31;4299760;33;20014;-80
2022/07/13 01:28:28;;;;;;;;;;;;;;;19.22;47.44;100293.59;4323438;33;20051;-80
2022/07/13 01:30:55;;;;;;;;;;;;;;;18.88;48.44;100288.72;4326185;33;20314;-79
2022/07/13 01:33:23;;;;;;;;;;;;;;;18.95;47.94;100287.78;4327222;33;20342;-80
2022/07/13 01:35:51;;;;;;;;;;;;;;;19.17;47.22;100293.63;4301236;33;20006;-80
2022/07/13 01:38:17;;;;;;;;;;;;;;;18.83;48.66;100290.53;4327244;33;19998;-81
2022/07/13 01:40:45;;;;;;;;;;;;;;;18.96;48.17;100289.53;4326945;33;19983;-79
2022/07/13 01:43:12;;;;;;;;;;;;;;;19.11;47.40;100282.34;4325998;33;19996;-79
2022/07/13 01:45:41;;;;;;;;;;;;;;;19.05;47.74;100285.94;4326984;33;20018;-82
2022/07/13 01:48:09;;;;;;;;;;;;;;;18.80;48.61;100285.34;4287796;33;19984;-79
2022/07/13 01:50:36;;;;;;;;;;;;;;;18.86;48.45;100280.03;4312184;33;20722;-80
2022/07/13 01:53:02;;;;;;;;;;;;;;;18.89;48.54;100277.37;4312329;33;19998;-79
2022/07/13 01:55:30;;;;;;;;;;;;;;;18.90;48.17;100275.59;4312311;33;19976;-79
2022/07/13 01:57:58;;;;;;;;;;;;;;;18.66;48.99;100271.44;4310391;33;20399;-79
2022/07/13 02:00:25;;;;;;;;;;;;;;;18.79;48.48;100280.94;4312210;33;20056;-80
2022/07/13 02:02:53;;;;;;;;;;;;;;;18.80;48.54;100280.09;4312497;33;20004;-86
2022/07/13 02:05:20;;;;;;;;;;;;;;;18.71;48.95;100274.91;4312568;33;20803;-78
2022/07/13 02:07:48;;;;;;;;;;;;;;;18.74;48.96;100267.03;4288281;33;778045;-79
2022/07/13 02:10:15;;;;;;;;;;;;;;;18.67;48.78;100273.19;4312344;33;19977;-79
2022/07/13 02:12:42;;;;;;;;;;;;;;;18.42;49.95;100275.19;4312086;33;19996;-79
2022/07/13 02:15:09;;;;;;;;;;;;;;;18.70;48.99;100279.28;4315811;33;20017;-92
2022/07/13 02:17:38;;;;;;;;;;;;;;;18.68;48.52;100275.78;4311545;33;20003;-78
2022/07/13 02:20:05;;;;;;;;;;;;;;;18.36;49.65;100279.59;4310449;33;19980;-79
2022/07/13 02:22:43;;;;;;;;;;;;;;;18.38;49.88;100279.59;4306141;33;20848;-80
2022/07/13 02:25:11;;;;;;;;;;;;;;;18.43;49.54;100269.91;4326413;33;19995;-78
2022/07/13 02:27:38;;;;;;;;;;;;;;;18.48;49.14;100278.63;4325597;33;19984;-78
2022/07/13 02:30:06;;;;;;;;;;;;;;;18.45;49.28;100276.03;4326862;32;20004;-78
2022/07/13 02:32:35;;;;;;;;;;;;;;;18.55;49.24;100275.03;4326523;33;20026;-80
2022/07/13 02:35:03;;;;;;;;;;;;;;;18.35;49.64;100271.75;4327007;33;19976;-79
2022/07/13 02:37:30;;;;;;;;;;;;;;;18.50;49.01;100275.97;4326158;33;20109;-79
2022/07/13 02:39:58;;;;;;;;;;;;;;;18.47;48.93;100276.84;4300934;33;19990;-80
2022/07/13 02:42:25;;;;;;;;;;;;;;;18.45;49.11;100273.41;4324514;33;20004;-79
2022/07/13 02:44:52;;;;;;;;;;;;;;;18.33;49.45;100268.25;4321669;33;20012;-87
2022/07/13 02:47:19;;;;;;;;;;;;;;;18.34;49.53;100275.22;4326643;32;20318;-79
2022/07/13 02:49:47;;;;;;;;;;;;;;;18.42;48.69;100270.81;4301192;33;20094;-80
2022/07/13 02:52:15;;;;;;;;;;;;;;;18.35;49.37;100267.37;4313179;33;19988;-80
2022/07/13 02:54:42;;;;;;;;;;;;;;;18.11;50.14;100268.44;4324755;33;20047;-79
2022/07/13 02:57:09;;;;;;;;;;;;;;;18.08;50.41;100272.81;4326413;33;19988;-81
2022/07/13 02:59:36;;;;;;;;;;;;;;;18.12;50.10;100267.56;4326129;33;19999;-80
2022/07/13 03:02:04;;;;;;;;;;;;;;;18.06;50.38;100279.81;4301160;33;20006;-79
2022/07/13 03:04:31;;;;;;;;;;;;;;;17.87;50.60;100279.09;4326316;33;19983;-80
2022/07/13 03:06:58;;;;;;;;;;;;;;;17.88;50.89;100272.97;4326767;33;20031;-80
2022/07/13 03:09:26;;;;;;;;;;;;;;;17.93;50.73;100268.56;4326312;33;20326;-79
2022/07/13 03:11:58;;;;;;;;;;;;;;;17.94;50.81;100265.09;4313673;33;19976;-79
2022/07/13 03:14:26;;;;;;;;;;;;;;;18.06;50.07;100270.22;4326328;33;19980;-81
2022/07/13 03:16:52;;;;;;;;;;;;;;;18.09;50.04;100275.44;4326092;33;19999;-79
2022/07/13 03:19:20;;;;;;;;;;;;;;;18.17;49.76;100271.91;4326019;33;20318;-79
2022/07/13 03:21:48;;;;;;;;;;;;;;;17.69;52.02;100272.19;4312906;33;20006;-79
2022/07/13 03:24:15;;;;;;;;;;;;;;;18.03;50.21;100274.63;4326353;33;20103;-82
2022/07/13 03:26:42;;;;;;;;;;;;;;;17.73;51.40;100266.06;4326031;33;19996;-78
2022/07/13 03:29:10;;;;;;;;;;;;;;;17.79;51.21;100271.28;4326724;33;19971;-79
2022/07/13 03:31:37;;;;;;;;;;;;;;;17.90;50.96;100279.09;4325662;33;19996;-81
2022/07/13 03:34:05;;;;;;;;;;;;;;;18.09;50.45;100280.69;4314831;33;20034;-79
2022/07/13 03:36:32;;;;;;;;;;;;;;;17.88;51.15;100275.59;4326338;33;19988;-81
2022/07/13 03:38:59;;;;;;;;;;;;;;;18.10;50.45;100282.41;4326155;33;19994;-79
2022/07/13 03:41:29;;;;;;;;;;;;;;;17.77;51.97;100282.62;4326093;33;19979;-80
2022/07/13 03:43:57;;;;;;;;;;;;;;;17.98;51.00;100279.88;4312957;33;20028;-79
2022/07/13 03:46:24;;;;;;;;;;;;;;;17.98;50.90;100282.50;4325926;33;20397;-79
2022/07/13 03:48:51;;;;;;;;;;;;;;;18.16;50.91;100278.88;4326127;33;20019;-80
2022/07/13 03:51:18;;;;;;;;;;;;;;;18.20;50.59;100279.72;4326208;33;19999;-80
2022/07/13 03:53:45;;;;;;;;;;;;;;;18.11;51.31;100276.28;4323911;33;20035;-80
2022/07/13 03:56:14;;;;;;;;;;;;;;;18.25;50.59;100285.78;4281561;33;20042;-79
2022/07/13 03:58:41;;;;;;;;;;;;;;;18.12;51.08;100285.91;4309718;33;19973;-79
2022/07/13 04:01:08;;;;;;;;;;;;;;;18.18;51.16;100294.59;4311082;33;19984;-79
2022/07/13 04:03:35;;;;;;;;;;;;;;;18.21;51.07;100290.19;4311915;33;20019;-79
2022/07/13 04:06:04;;;;;;;;;;;;;;;18.25;51.42;100291.03;4309814;33;20031;-80
2022/07/13 04:08:31;;;;;;;;;;;;;;;18.38;50.65;100292.69;4017303;33;10003736;-79
2022/07/13 04:10:58;;;;;;;;;;;;;;;18.41;51.28;100287.44;4175631;32;5090780;-79
2022/07/13 04:13:25;;;;;;;;;;;;;;;18.57;50.91;100281.16;4332621;33;19988;-83
2022/07/13 04:15:55;;;;;;;;;;;;;;;18.52;51.44;100282.94;4312255;33;19991;-79
2022/07/13 04:18:22;;;;;;;;;;;;;;;18.76;50.60;100279.25;4326053;33;20018;-79
2022/07/13 04:20:49;;;;;;;;;;;;;;;18.85;50.34;100275.63;4325887;33;19976;-79
2022/07/13 04:23:16;;;;;;;;;;;;;;;18.93;50.05;100276.44;4324022;33;19987;-79
2022/07/13 04:25:44;;;;;;;;;;;;;;;19.01;49.92;100274.56;4325584;33;20342;-80
2022/07/13 04:28:12;;;;;;;;;;;;;;;18.87;50.66;100271.25;4312105;33;19987;-79
2022/07/13 04:30:39;;;;;;;;;;;;;;;18.90;49.93;100270.34;4325693;33;19973;-80
2022/07/13 04:33:07;;;;;;;;;;;;;;;19.01;50.03;100277.19;4325526;33;19980;-79
2022/07/13 04:35:34;;;;;;;;;;;;;;;19.22;48.32;100280.47;4325503;33;20067;-77
2022/07/13 04:38:00;;;;;;;;;;;;;;;19.20;49.50;100279.62;4325163;33;19996;-81
2022/07/13 04:40:28;;;;;;;;;;;;;;;19.43;48.23;100282.84;4325149;33;19980;-82
2022/07/13 04:42:55;;;;;;;;;;;;;;;19.51;47.47;100275.72;4325028;32;20031;-82
2022/07/13 04:45:22;;;;;;;;;;;;;;;19.69;47.10;100268.50;4324762;33;19979;-80
2022/07/13 04:47:50;;;;;;;;;;;;;;;19.84;45.27;100268.25;4325184;33;19988;-83
2022/07/13 04:50:17;;;;;;;;;;;;;;;19.97;43.96;100269.84;4325338;33;19980;-80
2022/07/13 04:52:44;;;;;;;;;;;;;;;20.08;42.96;100276.69;4324710;32;20020;-81
2022/07/13 04:55:11;;;;;;;;;;;;;;;20.26;42.35;100276.41;4324536;33;20310;-80
2022/07/13 04:57:38;;;;;;;;;;;;;;;20.36;41.78;100277.97;4324280;33;19988;-82
2022/07/13 05:00:07;;;;;;;;;;;;;;;20.32;42.34;100281.53;4323672;33;19987;-81
2022/07/13 05:02:34;;;;;;;;;;;;;;;20.53;41.20;100284.72;4323392;33;19996;-81
2022/07/13 05:05:02;;;;;;;;;;;;;;;20.61;41.00;100278.44;4325447;33;20383;-80
2022/07/13 05:07:29;;;;;;;;;;;;;;;20.58;41.18;100288.13;4326168;33;19979;-82
2022/07/13 05:10:01;;;;;;;;;;;;;;;20.67;40.80;100282.69;4325295;33;19975;-81
2022/07/13 05:12:29;;;;;;;;;;;;;;;20.75;40.76;100280.81;4323847;32;19976;-81
2022/07/13 05:14:57;;;;;;;;;;;;;;;20.89;40.19;100281.41;4020076;33;5001202;-81
2022/07/13 05:17:25;;;;;;;;;;;;;;;21.04;39.66;100282.03;4325701;33;19984;-81
2022/07/13 05:19:52;;;;;;;;;;;;;;;20.74;40.01;100289.59;4326442;33;20330;-83
2022/07/13 05:22:19;;;;;;;;;;;;;;;20.90;40.18;100283.16;4326205;33;20038;-81
2022/07/13 05:24:46;;;;;;;;;;;;;;;20.97;40.19;100285.69;4325742;33;19994;-81
2022/07/13 05:27:13;;;;;;;;;;;;;;;21.01;39.81;100282.06;4324592;33;20046;-82
2022/07/13 05:29:40;;;;;;;;;;;;;;;21.12;39.51;100282.72;4326753;33;20039;-81
2022/07/13 05:32:07;;;;;;;;;;;;;;;21.12;39.57;100280.06;4326827;33;20235;-81
2022/07/13 05:34:35;;;;;;;;;;;;;;;21.18;38.99;100277.31;4326015;33;19984;-81
2022/07/13 05:37:02;;;;;;;;;;;;;;;20.97;40.32;100285.69;4326713;33;19998;-81
2022/07/13 05:39:29;;;;;;;;;;;;;;;21.23;39.41;100275.47;4325876;33;19987;-82
2022/07/13 05:41:56;;;;;;;;;;;;;;;21.39;39.04;100278.69;4326104;33;19982;-81
2022/07/13 05:44:23;;;;;;;;;;;;;;;21.55;38.58;100273.97;4326160;33;20465;-81
2022/07/13 05:46:50;;;;;;;;;;;;;;;21.50;39.13;100283.72;4326840;33;20019;-82
2022/07/13 05:49:18;;;;;;;;;;;;;;;21.45;39.16;100283.84;4324976;33;20066;-80
2022/07/13 05:51:44;;;;;;;;;;;;;;;21.52;38.69;100287.19;4321516;33;19990;-82
2022/07/13 05:54:12;;;;;;;;;;;;;;;21.56;38.98;100291.50;4324001;33;19980;-82
2022/07/13 05:56:59;;;;;;;;;;;;;;;21.57;38.49;100285.34;4323225;33;20355;-82
2022/07/13 05:59:26;;;;;;;;;;;;;;;21.56;38.40;100286.22;4323942;33;19984;-81
2022/07/13 06:01:53;;;;;;;;;;;;;;;21.55;38.75;100290.63;4323156;33;20003;-82
2022/07/13 06:04:20;;;;;;;;;;;;;;;21.63;38.55;100277.28;4326180;32;19991;-83
2022/07/13 06:06:47;;;;;;;;;;;;;;;21.77;37.84;100285.75;4326555;33;20026;-83
2022/07/13 06:09:14;;;;;;;;;;;;;;;21.79;37.55;100283.97;4325581;33;20003;-85
2022/07/13 06:11:41;;;;;;;;;;;;;;;22.00;37.04;100272.03;4324701;33;20336;-87
2022/07/13 06:14:08;;;;;;;;;;;;;;;21.97;37.22;100280.00;4323816;32;20714;-86
2022/07/13 06:16:35;;;;;;;;;;;;;;;22.00;37.52;100276.44;4323671;33;20011;-86
2022/07/13 06:19:02;;;;;;;;;;;;;;;22.20;37.70;100283.91;4326409;32;19987;-86
2022/07/13 06:21:29;;;;;;;;;;;;;;;22.70;36.72;100279.97;4326261;33;20079;-85
2022/07/13 06:23:55;;;;;;;;;;;;;;;22.84;37.02;100265.50;4326209;33;20346;-85
2022/07/13 06:26:22;;;;;;;;;;;;;;;23.20;36.17;100277.72;4326472;33;20047;-84
2022/07/13 06:28:49;;;;;;;;;;;;;;;23.64;34.74;100279.94;4326248;33;20007;-84
2022/07/13 06:31:21;;;;;;;;;;;;;;;23.59;35.91;100282.75;4326283;33;20007;-85
2022/07/13 06:33:51;;;;;;;;;;;;;;;23.97;35.20;100286.00;4028588;32;10004524;-84
2022/07/13 06:36:18;;;;;;;;;;;;;;;24.20;34.61;100279.09;4341045;32;20030;-85
2022/07/13 06:38:45;;;;;;;;;;;;;;;24.48;34.32;100279.94;4341578;33;19983;-85
2022/07/13 06:41:12;;;;;;;;;;;;;;;24.62;33.91;100281.22;4340574;33;20078;-84
2022/07/13 06:43:39;;;;;;;;;;;;;;;24.90;33.39;100271.41;4339273;33;19967;-84
2022/07/13 06:46:07;;;;;;;;;;;;;;;25.00;33.77;100282.53;4340473;33;19995;-84
2022/07/13 06:48:37;;;;;;;;;;;;;;;25.17;33.17;100289.88;4340644;32;19980;-84
2022/07/13 06:51:04;;;;;;;;;;;;;;;25.22;33.50;100285.28;4340919;32;20445;-84
2022/07/13 06:53:30;;;;;;;;;;;;;;;25.82;31.15;100289.19;4339439;33;20430;-84
2022/07/13 06:56:00;;;;;;;;;;;;;;;25.88;31.90;100293.38;4340680;32;19988;-84
2022/07/13 06:58:27;;;;;;;;;;;;;;;26.11;31.00;100292.47;4338812;33;19992;-84
2022/07/13 07:00:54;;;;;;;;;;;;;;;26.28;31.70;100292.59;4339981;32;19984;-84
2022/07/13 07:03:21;;;;;;;;;;;;;;;26.27;32.07;100290.03;4340313;33;20046;-84
2022/07/13 07:05:49;;;;;;;;;;;;;;;26.41;31.64;100288.50;4340789;33;20042;-84
2022/07/13 07:08:16;;;;;;;;;;;;;;;26.81;32.64;100289.50;4339113;33;20314;-84
2022/07/13 07:10:43;;;;;;;;;;;;;;;26.97;31.11;100286.16;4340637;33;20364;-83
2022/07/13 07:13:11;;;;;;;;;;;;;;;27.34;29.96;100290.69;4340046;33;19968;-85
2022/07/13 07:15:38;;;;;;;;;;;;;;;27.36;30.25;100289.69;4339593;33;20045;-84
2022/07/13 07:18:05;;;;;;;;;;;;;;;27.78;28.84;100279.78;4339328;33;20002;-84
2022/07/13 07:20:36;;;;;;;;;;;;;;;27.92;29.05;100287.97;4340822;33;19998;-84
2022/07/13 07:23:03;;;;;;;;;;;;;;;27.69;29.67;100286.38;4340286;32;19999;-84
2022/07/13 07:25:31;;;;;;;;;;;;;;;28.45;27.63;100280.94;4336395;32;20035;-86
2022/07/13 07:27:58;;;;;;;;;;;;;;;27.78;30.15;100270.00;4324716;32;20034;-84
2022/07/13 07:30:25;;;;;;;;;;;;;;;28.33;27.82;100266.41;4315213;32;19984;-85
2022/07/13 07:32:52;;;;;;;;;;;;;;;28.52;27.95;100271.69;4311608;33;19980;-85
2022/07/13 07:35:19;;;;;;;;;;;;;;;28.22;29.79;100266.09;4311352;33;19989;-84
2022/07/13 07:37:46;;;;;;;;;;;;;;;28.37;28.73;100264.47;4315248;33;19991;-85
2022/07/13 07:40:13;;;;;;;;;;;;;;;28.56;28.83;100262.62;4311768;33;19980;-84
2022/07/13 07:42:40;;;;;;;;;;;;;;;28.98;27.08;100258.63;4310758;33;20366;-86
2022/07/13 07:45:10;;;;;;;;;;;;;;;28.95;27.93;100246.31;4309386;33;20023;-85
2022/07/13 07:47:37;;;;;;;;;;;;;;;29.13;27.60;100252.50;4319866;32;19997;-85
2022/07/13 07:50:05;;;;;;;;;;;;;;;29.37;26.58;100249.44;4325536;32;20006;-85
2022/07/13 07:52:31;;;;;;;;;;;;;;;29.58;26.30;100258.03;4326065;33;19995;-84
2022/07/13 07:55:19;;;;;;;;;;;;;;;29.01;28.56;100257.66;4325880;33;19988;-85
2022/07/13 07:57:46;;;;;;;;;;;;;;;29.13;29.33;100263.19;4326048;33;20104;-85
2022/07/13 08:00:13;;;;;;;;;;;;;;;28.96;28.26;100260.50;4324775;33;19992;-85
2022/07/13 08:02:40;;;;;;;;;;;;;;;28.92;28.06;100259.81;4324854;32;20342;-85
2022/07/13 08:05:08;;;;;;;;;;;;;;;29.54;28.10;100254.69;4325970;33;19980;-85
2022/07/13 08:07:38;;;;;;;;;;;;;;;29.65;27.51;100248.78;4324634;33;20411;-85
2022/07/13 08:10:06;;;;;;;;;;;;;;;29.82;26.06;100250.50;4312775;33;19975;-85
2022/07/13 08:12:53;;;;;;;;;;;;;;;30.41;26.25;100248.84;4325860;33;20035;-85
2022/07/13 08:15:21;;;;;;;;;;;;;;;30.46;25.94;100240.53;4325895;33;19998;-85
2022/07/13 08:17:48;;;;;;;;;;;;;;;30.68;25.00;100234.75;4323179;33;19992;-85
2022/07/13 08:20:15;;;;;;;;;;;;;;;30.50;25.44;100221.53;4323978;33;20452;-85
2022/07/13 08:22:48;;;;;;;;;;;;;;;30.65;26.23;100230.44;4325613;33;19991;-85
2022/07/13 08:25:15;;;;;;;;;;;;;;;31.02;24.75;100242.44;4324093;33;20736;-85
2022/07/13 08:27:43;;;;;;;;;;;;;;;30.92;25.18;100233.28;4325690;33;19976;-86
2022/07/13 08:30:12;;;;;;;;;;;;;;;31.10;24.52;100235.75;4325478;33;20001;-85
2022/07/13 08:32:39;;;;;;;;;;;;;;;30.68;26.63;100224.06;4325895;33;19992;-86
2022/07/13 08:40:41;;;;;;;;;;;;;;;31.07;24.54;100214.53;4327425;33;20055;-85
2022/07/13 08:43:09;;;;;;;;;;;;;;;30.97;24.30;100217.78;4313508;33;20485;-85
2022/07/13 08:45:36;;;;;;;;;;;;;;;30.79;26.11;100208.25;4325791;33;20357;-84
2022/07/13 08:48:13;;;;;;;;;;;;;;;31.15;24.33;100206.91;4327216;33;20004;-84
2022/07/13 08:50:40;;;;;;;;;;;;;;;30.92;24.54;100209.22;4325673;33;19987;-87
2022/07/13 08:53:07;;;;;;;;;;;;;;;30.74;25.10;100213.00;4326904;33;20010;-90
2022/07/13 08:55:35;;;;;;;;;;;;;;;30.84;25.13;100208.81;4331028;32;20031;-90
2022/07/13 08:58:02;;;;;;;;;;;;;;;30.61;26.74;100217.38;4327665;33;20006;-86
2022/07/13 09:00:29;;;;;;;;;;;;;;;31.08;24.79;100216.25;4326360;33;20034;-87
2022/07/13 09:02:57;;;;;;;;;;;;;;;30.98;25.50;100206.16;4325543;33;19998;-87
2022/07/13 09:05:24;;;;;;;;;;;;;;;31.13;23.91;100203.47;4326036;33;20044;-86
2022/07/13 09:08:05;;;;;;;;;;;;;;;31.32;24.10;100195.12;4325676;33;20001;-85
2022/07/13 09:10:50;;;;;;;;;;;;;;;31.50;23.79;100210.88;4325062;33;19998;-85
2022/07/13 09:13:36;;;;;;;;;;;;;;;30.97;25.62;100183.03;4327291;33;19984;-85
2022/07/13 09:16:13;;;;;;;;;;;;;;;30.82;25.98;100205.38;4327146;32;19976;-81
2022/07/13 09:18:40;;;;;;;;;;;;;;;31.42;23.75;100178.38;4325361;33;20054;-82
2022/07/13 09:21:08;;;;;;;;;;;;;;;31.53;24.14;100190.22;4327147;33;19979;-82
2022/07/13 09:23:37;;;;;;;;;;;;;;;31.49;23.98;100194.91;4313149;32;19998;-81
2022/07/13 09:26:04;;;;;;;;;;;;;;;31.58;23.91;100191.62;4325898;33;19984;-86
2022/07/13 09:28:44;;;;;;;;;;;;;;;31.55;23.01;100199.00;4309303;32;19980;-89
2022/07/13 09:31:12;;;;;;;;;;;;;;;31.36;24.21;100189.47;4327396;33;19980;-89
2022/07/13 09:33:39;;;;;;;;;;;;;;;31.25;25.68;100189.31;4326685;33;19999;-86
2022/07/13 09:36:09;;;;;;;;;;;;;;;31.58;22.98;100193.44;4326746;33;19984;-88
2022/07/13 09:38:36;;;;;;;;;;;;;;;31.76;22.57;100188.69;4327065;33;20307;-88
2022/07/13 09:41:16;;;;;;;;;;;;;;;31.89;22.92;100187.81;4327005;33;19999;-90
2022/07/13 09:46:50;;;;;;;;;;;;;;;31.26;24.87;100201.72;4317093;32;19984;-89
2022/07/13 09:49:29;;;;;;;;;;;;;;;31.67;22.22;100188.34;4312413;33;20325;-89
2022/07/13 09:51:59;;;;;;;;;;;;;;;31.49;24.33;100190.44;4310081;33;19976;-88
2022/07/13 09:54:28;;;;;;;;;;;;;;;31.35;23.63;100190.44;4311220;33;19996;-89
2022/07/13 09:56:59;;;;;;;;;;;;;;;31.15;24.66;100196.22;4334465;33;20074;-90
2022/07/13 09:59:29;;;;;;;;;;;;;;;31.46;23.04;100181.72;4312446;33;19999;-87
2022/07/13 10:01:56;;;;;;;;;;;;;;;31.70;23.50;100187.28;4336954;32;20054;-90
2022/07/13 10:04:24;;;;;;;;;;;;;;;31.94;22.37;100179.44;4312308;33;20381;-89
2022/07/13 10:07:10;;;;;;;;;;;;;;;32.14;21.18;100186.16;4330900;33;20347;-89
2022/07/13 10:09:38;;;;;;;;;;;;;;;31.71;23.36;100186.31;4311913;33;20342;-90
2022/07/13 10:12:06;;;;;;;;;;;;;;;31.67;23.44;100183.00;4334949;33;20391;-90
2022/07/13 10:14:33;;;;;;;;;;;;;;;32.03;22.33;100184.19;4312119;33;20007;-90
2022/07/13 10:17:00;;;;;;;;;;;;;;;31.89;23.24;100179.78;4334796;33;20524;-89
2022/07/13 10:19:28;;;;;;;;;;;;;;;31.81;22.57;100173.16;4312252;33;19988;-89
2022/07/13 10:22:00;;;;;;;;;;;;;;;31.71;22.49;100178.28;4334778;33;20012;-90
2022/07/13 10:24:28;;;;;;;;;;;;;;;32.01;21.88;100175.41;4311624;33;19983;-89
2022/07/13 10:27:15;;;;;;;;;;;;;;;32.01;22.48;100179.91;4334619;33;19991;-89
2022/07/13 10:29:53;;;;;;;;;;;;;;;32.12;22.23;100166.63;4312177;33;20294;-89
2022/07/13 10:32:21;;;;;;;;;;;;;;;32.23;22.47;100165.87;4312028;33;20396;-88
2022/07/13 10:35:10;;;;;;;;;;;;;;;31.94;22.47;100163.38;4322622;33;19984;-89
2022/07/13 10:37:55;;;;;;;;;;;;;;;32.01;22.35;100163.84;4312112;33;19983;-88
2022/07/13 10:40:28;;;;;;;;;;;;;;;32.34;22.45;100169.56;4312430;33;19994;-89
2022/07/13 10:43:03;;;;;;;;;;;;;;;32.46;21.67;100162.53;4312273;33;20019;-90
2022/07/13 10:45:55;;;;;;;;;;;;;;;32.47;22.31;100155.34;4311962;33;20454;-89
2022/07/13 10:48:42;;;;;;;;;;;;;;;32.51;21.80;100151.47;4311783;33;19990;-88
2022/07/13 10:51:15;;;;;;;;;;;;;;;32.40;21.58;100149.50;4311766;33;20279;-89
2022/07/13 10:53:43;;;;;;;;;;;;;;;32.13;24.32;100146.91;4311862;33;19984;-89
2022/07/13 10:56:17;;;;;;;;;;;;;;;32.38;21.12;100156.78;4319690;32;20273;-89
2022/07/13 10:58:44;;;;;;;;;;;;;;;32.27;20.79;100149.50;4349421;32;20004;-90
2022/07/13 11:01:30;;;;;;;;;;;;;;;32.11;21.62;100148.84;4349858;32;19992;-90
2022/07/13 11:03:57;;;;;;;;;;;;;;;32.37;22.51;100147.91;4326446;33;20035;-90
2022/07/13 11:06:24;;;;;;;;;;;;;;;32.59;20.33;100151.78;4326217;33;19985;-90
2022/07/13 11:09:06;;;;;;;;;;;;;;;32.15;21.22;100161.91;4326547;33;20007;-90
2022/07/13 11:11:33;;;;;;;;;;;;;;;32.14;23.63;100157.53;4326252;33;19999;-91
2022/07/13 11:13:59;;;;;;;;;;;;;;;32.10;22.18;100141.75;4326322;33;20026;-92
2022/07/13 11:16:45;;;;;;;;;;;;;;;32.19;21.24;100151.84;4326767;33;20010;-92
2022/07/13 11:19:13;;;;;;;;;;;;;;;32.47;20.50;100152.66;4349733;32;19995;-92
2022/07/13 11:21:58;;;;;;;;;;;;;;;32.57;21.17;100151.03;4349421;32;20054;-93
2022/07/13 11:27:11;;;;;;;;;;;;;;;32.46;21.21;100153.63;4345679;32;20306;-91
2022/07/13 11:29:46;;;;;;;;;;;;;;;32.74;19.00;100139.97;4325270;33;20039;-92
2022/07/13 11:32:13;;;;;;;;;;;;;;;32.33;19.11;100154.44;4349125;32;20052;-89
2022/07/13 11:34:41;;;;;;;;;;;;;;;32.36;18.60;100142.66;4326243;33;19988;-89
2022/07/13 11:37:08;;;;;;;;;;;;;;;32.25;19.18;100132.66;4326617;33;20027;-91
2022/07/13 11:39:35;;;;;;;;;;;;;;;32.38;18.40;100136.22;4348928;32;20475;-91
2022/07/13 11:42:05;;;;;;;;;;;;;;;32.20;18.38;100126.78;4348182;32;20519;-91
2022/07/13 11:44:32;;;;;;;;;;;;;;;32.12;18.70;100121.94;4326544;33;19984;-90
2022/07/13 11:47:06;;;;;;;;;;;;;;;32.12;19.20;100119.28;4326039;33;20039;-89
2022/07/13 11:49:43;;;;;;;;;;;;;;;32.12;19.83;100113.06;4325884;33;20326;-89
2022/07/13 11:52:19;;;;;;;;;;;;;;;32.16;20.27;100111.87;4324911;33;20000;-88
2022/07/13 11:54:56;;;;;;;;;;;;;;;32.63;18.81;100107.72;4324109;32;22662;-90
2022/07/13 11:57:23;;;;;;;;;;;;;;;32.51;18.52;100116.62;4324504;33;20010;-92
2022/07/13 11:59:50;;;;;;;;;;;;;;;32.48;18.05;100112.31;4326198;33;19996;-90
2022/07/13 12:02:17;;;;;;;;;;;;;;;32.37;18.82;100121.09;4314987;32;20036;-91
2022/07/13 12:04:45;;;;;;;;;;;;;;;32.47;18.41;100105.25;4349269;32;20051;-90
2022/07/13 12:07:15;;;;;;;;;;;;;;;32.56;18.61;100101.06;4346194;32;20039;-90
2022/07/13 12:09:48;;;;;;;;;;;;;;;32.76;18.70;100105.84;4325534;33;20002;-91
2022/07/13 12:12:15;;;;;;;;;;;;;;;32.79;18.92;100119.03;4325437;33;20038;-88
2022/07/13 12:14:42;;;;;;;;;;;;;;;32.65;18.61;100105.78;4324912;33;20414;-89
2022/07/13 12:17:09;;;;;;;;;;;;;;;32.69;18.28;100090.34;4325243;33;20318;-88
2022/07/13 12:19:36;;;;;;;;;;;;;;;32.61;17.69;100094.44;4348289;32;19987;-89
2022/07/13 12:22:04;;;;;;;;;;;;;;;32.78;17.08;100101.25;4325110;33;19994;-89
2022/07/13 12:24:31;;;;;;;;;;;;;;;32.75;18.06;100106.84;4320857;33;20015;-89
2022/07/13 12:26:59;;;;;;;;;;;;;;;32.83;18.40;100099.09;4322772;33;19980;-88
2022/07/13 12:29:35;;;;;;;;;;;;;;;33.02;17.69;100092.41;4325345;33;20011;-89
2022/07/13 12:32:02;;;;;;;;;;;;;;;33.07;17.62;100096.47;4311560;33;20840;-90
2022/07/13 12:34:29;;;;;;;;;;;;;;;32.69;17.75;100091.19;4323299;33;19992;-89
2022/07/13 12:36:56;;;;;;;;;;;;;;;32.88;17.58;100099.59;4322352;32;20789;-90
2022/07/13 12:39:33;;;;;;;;;;;;;;;32.91;17.52;100111.09;4321985;33;20031;-89
2022/07/13 12:42:03;;;;;;;;;;;;;;;32.85;17.98;100102.50;4328400;33;20007;-88
2022/07/13 12:44:30;;;;;;;;;;;;;;;32.91;17.81;100095.00;4315820;33;20310;-88
2022/07/13 12:46:59;;;;;;;;;;;;;;;32.74;17.60;100089.03;4339182;32;20567;-89
2022/07/13 12:49:35;;;;;;;;;;;;;;;32.49;19.28;100089.09;4339523;32;20317;-89
2022/07/13 12:52:07;;;;;;;;;;;;;;;32.67;18.82;100098.47;4328124;33;20404;-88
2022/07/13 12:54:50;;;;;;;;;;;;;;;32.54;17.64;100100.31;4341483;32;20000;-88